sensor_id;sensor_type;location;lat;lon;timestamp;P1;durP1;ratioP1;P2;durP2;ratioP2
9801;SDS011;4940;50.900;4.672;2022-09-09T00:00:56;5.72;;;1.63;;
9801;SDS011;4940;50.900;4.672;2022-09-09T00:03:31;3.92;;;1.35;;
9801;SDS011;4940;50.900;4.672;2022-09-09T00:06:08;6.32;;;1.67;;
9801;SDS011;4940;50.900;4.672;2022-09-09T00:08:41;3.30;;;1.38;;
9801;SDS011;4940;50.900;4.672;2022-09-09T00:11:15;8.07;;;1.35;;
9801;SDS011;4940;50.900;4.672;2022-09-09T00:13:50;2.70;;;1.38;;
9801;SDS011;4940;50.900;4.672;2022-09-09T00:16:21;2.35;;;1.30;;
9801;SDS011;4940;50.900;4.672;2022-09-09T00:18:53;3.00;;;1.42;;
9801;SDS011;4940;50.900;4.672;2022-09-09T00:21:25;2.30;;;1.42;;
9801;SDS011;4940;50.900;4.672;2022-09-09T00:23:58;3.25;;;1.38;;
9801;SDS011;4940;50.900;4.672;2022-09-09T00:26:35;2.83;;;1.10;;
9801;SDS011;4940;50.900;4.672;2022-09-09T00:29:09;5.47;;;1.20;;
9801;SDS011;4940;50.900;4.672;2022-09-09T00:31:42;2.55;;;1.40;;
9801;SDS011;4940;50.900;4.672;2022-09-09T00:34:11;4.18;;;2.17;;
9801;SDS011;4940;50.900;4.672;2022-09-09T00:36:39;3.03;;;1.40;;
9801;SDS011;4940;50.900;4.672;2022-09-09T00:39:09;5.32;;;1.50;;
9801;SDS011;4940;50.900;4.672;2022-09-09T00:41:46;2.28;;;1.27;;
9801;SDS011;4940;50.900;4.672;2022-09-09T00:44:27;4.03;;;1.50;;
9801;SDS011;4940;50.900;4.672;2022-09-09T00:47:12;4.57;;;1.48;;
9801;SDS011;4940;50.900;4.672;2022-09-09T00:49:55;2.97;;;1.48;;
9801;SDS011;4940;50.900;4.672;2022-09-09T00:52:31;4.55;;;1.52;;
9801;SDS011;4940;50.900;4.672;2022-09-09T00:55:05;4.38;;;1.52;;
9801;SDS011;4940;50.900;4.672;2022-09-09T00:57:40;4.05;;;1.50;;
9801;SDS011;4940;50.900;4.672;2022-09-09T01:00:22;3.35;;;1.33;;
9801;SDS011;4940;50.900;4.672;2022-09-09T01:02:53;2.70;;;1.48;;
9801;SDS011;4940;50.900;4.672;2022-09-09T01:05:30;3.92;;;1.70;;
9801;SDS011;4940;50.900;4.672;2022-09-09T01:08:02;4.07;;;1.67;;
9801;SDS011;4940;50.900;4.672;2022-09-09T01:10:39;5.80;;;1.50;;
9801;SDS011;4940;50.900;4.672;2022-09-09T01:13:16;4.15;;;1.52;;
9801;SDS011;4940;50.900;4.672;2022-09-09T01:15:51;5.15;;;1.52;;
9801;SDS011;4940;50.900;4.672;2022-09-09T01:18:21;2.35;;;1.48;;
9801;SDS011;4940;50.900;4.672;2022-09-09T01:20:54;4.30;;;1.50;;
9801;SDS011;4940;50.900;4.672;2022-09-09T01:23:37;6.43;;;2.10;;
9801;SDS011;4940;50.900;4.672;2022-09-09T01:26:17;3.30;;;1.52;;
9801;SDS011;4940;50.900;4.672;2022-09-09T01:28:48;2.20;;;1.88;;
9801;SDS011;4940;50.900;4.672;2022-09-09T01:31:19;6.60;;;1.90;;
9801;SDS011;4940;50.900;4.672;2022-09-09T01:33:48;4.38;;;1.70;;
9801;SDS011;4940;50.900;4.672;2022-09-09T01:36:19;6.13;;;1.67;;
9801;SDS011;4940;50.900;4.672;2022-09-09T01:38:52;6.07;;;1.92;;
9801;SDS011;4940;50.900;4.672;2022-09-09T01:41:21;3.53;;;1.90;;
9801;SDS011;4940;50.900;4.672;2022-09-09T01:43:49;6.97;;;1.70;;
9801;SDS011;4940;50.900;4.672;2022-09-09T01:46:17;3.58;;;1.80;;
9801;SDS011;4940;50.900;4.672;2022-09-09T01:48:47;5.30;;;1.90;;
9801;SDS011;4940;50.900;4.672;2022-09-09T01:51:16;5.80;;;1.95;;
9801;SDS011;4940;50.900;4.672;2022-09-09T01:53:43;3.97;;;1.73;;
9801;SDS011;4940;50.900;4.672;2022-09-09T01:56:14;5.70;;;1.75;;
9801;SDS011;4940;50.900;4.672;2022-09-09T01:58:55;4.00;;;1.60;;
9801;SDS011;4940;50.900;4.672;2022-09-09T02:01:33;5.45;;;1.90;;
9801;SDS011;4940;50.900;4.672;2022-09-09T02:04:15;5.60;;;1.80;;
9801;SDS011;4940;50.900;4.672;2022-09-09T02:06:51;2.97;;;1.83;;
9801;SDS011;4940;50.900;4.672;2022-09-09T02:09:22;5.13;;;1.48;;
9801;SDS011;4940;50.900;4.672;2022-09-09T02:11:54;3.92;;;1.98;;
9801;SDS011;4940;50.900;4.672;2022-09-09T02:14:27;4.43;;;1.52;;
9801;SDS011;4940;50.900;4.672;2022-09-09T02:17:01;5.53;;;1.35;;
9801;SDS011;4940;50.900;4.672;2022-09-09T02:19:32;5.20;;;1.55;;
9801;SDS011;4940;50.900;4.672;2022-09-09T02:22:02;6.13;;;2.17;;
9801;SDS011;4940;50.900;4.672;2022-09-09T02:24:30;3.92;;;1.50;;
9801;SDS011;4940;50.900;4.672;2022-09-09T02:27:02;2.85;;;1.52;;
9801;SDS011;4940;50.900;4.672;2022-09-09T02:29:34;7.57;;;2.17;;
9801;SDS011;4940;50.900;4.672;2022-09-09T02:32:04;2.90;;;1.70;;
9801;SDS011;4940;50.900;4.672;2022-09-09T02:34:35;6.18;;;2.40;;
9801;SDS011;4940;50.900;4.672;2022-09-09T02:37:06;4.78;;;1.63;;
9801;SDS011;4940;50.900;4.672;2022-09-09T02:39:35;8.98;;;1.88;;
9801;SDS011;4940;50.900;4.672;2022-09-09T02:42:04;7.00;;;1.65;;
9801;SDS011;4940;50.900;4.672;2022-09-09T02:44:33;6.00;;;1.80;;
9801;SDS011;4940;50.900;4.672;2022-09-09T02:49:56;3.92;;;1.70;;
9801;SDS011;4940;50.900;4.672;2022-09-09T02:52:32;6.32;;;1.60;;
9801;SDS011;4940;50.900;4.672;2022-09-09T02:55:06;2.80;;;1.40;;
9801;SDS011;4940;50.900;4.672;2022-09-09T02:57:40;3.20;;;1.90;;
9801;SDS011;4940;50.900;4.672;2022-09-09T03:00:11;2.78;;;1.70;;
9801;SDS011;4940;50.900;4.672;2022-09-09T03:02:38;7.18;;;1.63;;
9801;SDS011;4940;50.900;4.672;2022-09-09T03:05:07;6.95;;;1.73;;
9801;SDS011;4940;50.900;4.672;2022-09-09T03:07:35;5.90;;;1.85;;
9801;SDS011;4940;50.900;4.672;2022-09-09T03:10:02;5.90;;;1.80;;
9801;SDS011;4940;50.900;4.672;2022-09-09T03:12:30;6.53;;;2.28;;
9801;SDS011;4940;50.900;4.672;2022-09-09T03:15:00;8.20;;;2.00;;
9801;SDS011;4940;50.900;4.672;2022-09-09T03:17:27;6.40;;;1.88;;
9801;SDS011;4940;50.900;4.672;2022-09-09T03:19:54;4.90;;;1.98;;
9801;SDS011;4940;50.900;4.672;2022-09-09T03:22:24;5.03;;;2.05;;
9801;SDS011;4940;50.900;4.672;2022-09-09T03:24:51;4.78;;;2.08;;
9801;SDS011;4940;50.900;4.672;2022-09-09T03:27:18;4.30;;;1.60;;
9801;SDS011;4940;50.900;4.672;2022-09-09T03:29:46;5.95;;;1.70;;
9801;SDS011;4940;50.900;4.672;2022-09-09T03:32:18;6.78;;;2.00;;
9801;SDS011;4940;50.900;4.672;2022-09-09T03:34:47;10.23;;;1.95;;
9801;SDS011;4940;50.900;4.672;2022-09-09T03:37:15;8.50;;;2.08;;
9801;SDS011;4940;50.900;4.672;2022-09-09T03:39:43;5.15;;;1.98;;
9801;SDS011;4940;50.900;4.672;2022-09-09T03:42:12;3.20;;;1.63;;
9801;SDS011;4940;50.900;4.672;2022-09-09T03:44:44;6.55;;;1.95;;
9801;SDS011;4940;50.900;4.672;2022-09-09T03:47:12;10.70;;;2.17;;
9801;SDS011;4940;50.900;4.672;2022-09-09T03:49:41;8.35;;;1.80;;
9801;SDS011;4940;50.900;4.672;2022-09-09T03:52:08;7.63;;;2.22;;
9801;SDS011;4940;50.900;4.672;2022-09-09T03:54:36;8.48;;;1.50;;
9801;SDS011;4940;50.900;4.672;2022-09-09T03:57:03;9.27;;;1.90;;
9801;SDS011;4940;50.900;4.672;2022-09-09T03:59:31;9.27;;;2.00;;
9801;SDS011;4940;50.900;4.672;2022-09-09T04:02:00;6.40;;;1.83;;
9801;SDS011;4940;50.900;4.672;2022-09-09T04:04:27;5.20;;;1.75;;
9801;SDS011;4940;50.900;4.672;2022-09-09T04:06:56;7.10;;;1.77;;
9801;SDS011;4940;50.900;4.672;2022-09-09T04:09:23;6.43;;;2.45;;
9801;SDS011;4940;50.900;4.672;2022-09-09T04:11:51;4.72;;;1.67;;
9801;SDS011;4940;50.900;4.672;2022-09-09T04:14:20;9.07;;;2.38;;
9801;SDS011;4940;50.900;4.672;2022-09-09T04:16:47;5.35;;;1.90;;
9801;SDS011;4940;50.900;4.672;2022-09-09T04:19:14;9.02;;;2.05;;
9801;SDS011;4940;50.900;4.672;2022-09-09T04:21:42;6.07;;;1.83;;
9801;SDS011;4940;50.900;4.672;2022-09-09T04:24:11;6.88;;;2.22;;
9801;SDS011;4940;50.900;4.672;2022-09-09T04:26:38;4.55;;;1.90;;
9801;SDS011;4940;50.900;4.672;2022-09-09T04:29:05;8.40;;;2.20;;
9801;SDS011;4940;50.900;4.672;2022-09-09T04:31:33;4.65;;;2.30;;
9801;SDS011;4940;50.900;4.672;2022-09-09T04:34:00;5.90;;;2.17;;
9801;SDS011;4940;50.900;4.672;2022-09-09T04:36:30;9.57;;;2.25;;
9801;SDS011;4940;50.900;4.672;2022-09-09T04:38:58;5.25;;;1.85;;
9801;SDS011;4940;50.900;4.672;2022-09-09T04:41:28;5.28;;;2.33;;
9801;SDS011;4940;50.900;4.672;2022-09-09T04:43:56;6.20;;;2.10;;
9801;SDS011;4940;50.900;4.672;2022-09-09T04:46:24;4.40;;;1.88;;
9801;SDS011;4940;50.900;4.672;2022-09-09T04:48:51;9.40;;;2.20;;
9801;SDS011;4940;50.900;4.672;2022-09-09T04:51:19;9.50;;;1.80;;
9801;SDS011;4940;50.900;4.672;2022-09-09T04:53:46;8.75;;;2.72;;
9801;SDS011;4940;50.900;4.672;2022-09-09T04:56:15;9.27;;;2.30;;
9801;SDS011;4940;50.900;4.672;2022-09-09T04:58:44;8.43;;;2.38;;
9801;SDS011;4940;50.900;4.672;2022-09-09T05:01:12;4.32;;;2.00;;
9801;SDS011;4940;50.900;4.672;2022-09-09T05:03:41;8.75;;;2.08;;
9801;SDS011;4940;50.900;4.672;2022-09-09T05:06:11;15.30;;;2.53;;
9801;SDS011;4940;50.900;4.672;2022-09-09T05:08:40;9.02;;;2.20;;
9801;SDS011;4940;50.900;4.672;2022-09-09T05:11:15;7.30;;;2.22;;
9801;SDS011;4940;50.900;4.672;2022-09-09T05:13:45;6.53;;;2.42;;
9801;SDS011;4940;50.900;4.672;2022-09-09T05:16:13;10.98;;;2.70;;
9801;SDS011;4940;50.900;4.672;2022-09-09T05:18:41;7.18;;;2.40;;
9801;SDS011;4940;50.900;4.672;2022-09-09T05:21:09;9.63;;;2.75;;
9801;SDS011;4940;50.900;4.672;2022-09-09T05:23:36;10.30;;;2.60;;
9801;SDS011;4940;50.900;4.672;2022-09-09T05:26:04;9.50;;;2.80;;
9801;SDS011;4940;50.900;4.672;2022-09-09T05:28:33;8.88;;;2.60;;
9801;SDS011;4940;50.900;4.672;2022-09-09T05:31:03;6.70;;;2.45;;
9801;SDS011;4940;50.900;4.672;2022-09-09T05:33:34;4.50;;;2.53;;
9801;SDS011;4940;50.900;4.672;2022-09-09T05:36:02;11.05;;;2.85;;
9801;SDS011;4940;50.900;4.672;2022-09-09T05:38:31;9.23;;;3.08;;
9801;SDS011;4940;50.900;4.672;2022-09-09T05:40:59;7.30;;;2.20;;
9801;SDS011;4940;50.900;4.672;2022-09-09T05:43:27;9.10;;;3.03;;
9801;SDS011;4940;50.900;4.672;2022-09-09T05:46:00;8.88;;;2.70;;
9801;SDS011;4940;50.900;4.672;2022-09-09T05:48:31;12.55;;;3.33;;
9801;SDS011;4940;50.900;4.672;2022-09-09T05:50:59;8.07;;;2.75;;
9801;SDS011;4940;50.900;4.672;2022-09-09T05:53:29;9.60;;;3.28;;
9801;SDS011;4940;50.900;4.672;2022-09-09T05:55:59;7.82;;;3.30;;
9801;SDS011;4940;50.900;4.672;2022-09-09T05:58:28;6.07;;;3.03;;
9801;SDS011;4940;50.900;4.672;2022-09-09T06:01:03;7.38;;;2.70;;
9801;SDS011;4940;50.900;4.672;2022-09-09T06:03:33;4.10;;;2.60;;
9801;SDS011;4940;50.900;4.672;2022-09-09T06:06:00;4.85;;;2.70;;
9801;SDS011;4940;50.900;4.672;2022-09-09T06:08:30;11.73;;;3.08;;
9801;SDS011;4940;50.900;4.672;2022-09-09T06:11:01;5.22;;;2.60;;
9801;SDS011;4940;50.900;4.672;2022-09-09T06:13:31;6.35;;;2.33;;
9801;SDS011;4940;50.900;4.672;2022-09-09T06:16:02;6.75;;;2.58;;
9801;SDS011;4940;50.900;4.672;2022-09-09T06:18:29;6.68;;;2.63;;
9801;SDS011;4940;50.900;4.672;2022-09-09T06:20:58;5.88;;;2.50;;
9801;SDS011;4940;50.900;4.672;2022-09-09T06:23:29;7.25;;;2.40;;
9801;SDS011;4940;50.900;4.672;2022-09-09T06:26:01;6.38;;;1.98;;
9801;SDS011;4940;50.900;4.672;2022-09-09T06:28:30;8.45;;;2.53;;
9801;SDS011;4940;50.900;4.672;2022-09-09T06:30:58;4.35;;;2.80;;
9801;SDS011;4940;50.900;4.672;2022-09-09T06:33:26;7.85;;;2.33;;
9801;SDS011;4940;50.900;4.672;2022-09-09T06:35:54;9.98;;;2.58;;
9801;SDS011;4940;50.900;4.672;2022-09-09T06:38:23;4.05;;;1.90;;
9801;SDS011;4940;50.900;4.672;2022-09-09T06:40:51;7.50;;;2.28;;
9801;SDS011;4940;50.900;4.672;2022-09-09T06:43:19;9.50;;;2.15;;
9801;SDS011;4940;50.900;4.672;2022-09-09T06:45:52;10.82;;;2.45;;
9801;SDS011;4940;50.900;4.672;2022-09-09T06:48:20;5.35;;;1.98;;
9801;SDS011;4940;50.900;4.672;2022-09-09T06:50:48;8.65;;;2.28;;
9801;SDS011;4940;50.900;4.672;2022-09-09T06:53:16;4.65;;;1.77;;
9801;SDS011;4940;50.900;4.672;2022-09-09T06:55:46;5.53;;;1.77;;
9801;SDS011;4940;50.900;4.672;2022-09-09T06:58:13;4.55;;;2.10;;
9801;SDS011;4940;50.900;4.672;2022-09-09T07:00:40;8.27;;;2.05;;
9801;SDS011;4940;50.900;4.672;2022-09-09T07:03:10;8.00;;;2.05;;
9801;SDS011;4940;50.900;4.672;2022-09-09T07:05:38;6.22;;;1.83;;
9801;SDS011;4940;50.900;4.672;2022-09-09T07:08:05;4.30;;;1.80;;
9801;SDS011;4940;50.900;4.672;2022-09-09T07:10:34;6.60;;;1.88;;
9801;SDS011;4940;50.900;4.672;2022-09-09T07:13:02;4.43;;;2.13;;
9801;SDS011;4940;50.900;4.672;2022-09-09T07:15:30;6.30;;;1.90;;
9801;SDS011;4940;50.900;4.672;2022-09-09T07:18:00;3.63;;;1.60;;
9801;SDS011;4940;50.900;4.672;2022-09-09T07:20:28;4.85;;;2.20;;
9801;SDS011;4940;50.900;4.672;2022-09-09T07:22:56;2.90;;;1.65;;
9801;SDS011;4940;50.900;4.672;2022-09-09T07:25:23;5.97;;;2.22;;
9801;SDS011;4940;50.900;4.672;2022-09-09T07:27:52;4.68;;;1.60;;
9801;SDS011;4940;50.900;4.672;2022-09-09T07:30:21;4.15;;;1.70;;
9801;SDS011;4940;50.900;4.672;2022-09-09T07:32:50;6.50;;;1.83;;
9801;SDS011;4940;50.900;4.672;2022-09-09T07:35:18;7.05;;;1.60;;
9801;SDS011;4940;50.900;4.672;2022-09-09T07:37:45;6.55;;;1.95;;
9801;SDS011;4940;50.900;4.672;2022-09-09T07:40:13;8.52;;;2.13;;
9801;SDS011;4940;50.900;4.672;2022-09-09T07:42:44;6.05;;;1.83;;
9801;SDS011;4940;50.900;4.672;2022-09-09T07:45:14;3.72;;;1.30;;
9801;SDS011;4940;50.900;4.672;2022-09-09T07:47:43;3.58;;;1.60;;
9801;SDS011;4940;50.900;4.672;2022-09-09T07:50:11;8.02;;;1.85;;
9801;SDS011;4940;50.900;4.672;2022-09-09T07:52:42;4.82;;;1.48;;
9801;SDS011;4940;50.900;4.672;2022-09-09T07:55:10;5.28;;;1.45;;
9801;SDS011;4940;50.900;4.672;2022-09-09T07:57:37;7.22;;;1.88;;
9801;SDS011;4940;50.900;4.672;2022-09-09T08:00:05;8.65;;;2.30;;
9801;SDS011;4940;50.900;4.672;2022-09-09T08:02:33;4.57;;;1.50;;
9801;SDS011;4940;50.900;4.672;2022-09-09T08:05:02;9.15;;;1.73;;
9801;SDS011;4940;50.900;4.672;2022-09-09T08:07:31;4.40;;;1.73;;
9801;SDS011;4940;50.900;4.672;2022-09-09T08:09:58;8.02;;;1.90;;
9801;SDS011;4940;50.900;4.672;2022-09-09T08:12:26;4.78;;;1.70;;
9801;SDS011;4940;50.900;4.672;2022-09-09T08:14:53;5.10;;;1.60;;
9801;SDS011;4940;50.900;4.672;2022-09-09T08:17:20;5.90;;;1.60;;
9801;SDS011;4940;50.900;4.672;2022-09-09T08:19:48;9.73;;;1.80;;
9801;SDS011;4940;50.900;4.672;2022-09-09T08:22:16;5.20;;;1.70;;
9801;SDS011;4940;50.900;4.672;2022-09-09T08:24:44;4.88;;;1.77;;
9801;SDS011;4940;50.900;4.672;2022-09-09T08:27:12;5.45;;;2.17;;
9801;SDS011;4940;50.900;4.672;2022-09-09T08:29:39;5.57;;;1.70;;
9801;SDS011;4940;50.900;4.672;2022-09-09T08:32:07;3.60;;;1.38;;
9801;SDS011;4940;50.900;4.672;2022-09-09T08:34:34;1.60;;;1.15;;
9801;SDS011;4940;50.900;4.672;2022-09-09T08:37:01;4.35;;;1.40;;
9801;SDS011;4940;50.900;4.672;2022-09-09T08:39:30;5.15;;;1.63;;
9801;SDS011;4940;50.900;4.672;2022-09-09T08:42:01;6.15;;;1.45;;
9801;SDS011;4940;50.900;4.672;2022-09-09T08:44:50;3.50;;;1.30;;
9801;SDS011;4940;50.900;4.672;2022-09-09T08:47:29;3.20;;;1.25;;
9801;SDS011;4940;50.900;4.672;2022-09-09T08:50:11;2.83;;;1.33;;
9801;SDS011;4940;50.900;4.672;2022-09-09T08:52:47;4.63;;;1.35;;
9801;SDS011;4940;50.900;4.672;2022-09-09T08:55:24;4.82;;;1.60;;
9801;SDS011;4940;50.900;4.672;2022-09-09T08:57:56;5.72;;;1.38;;
9801;SDS011;4940;50.900;4.672;2022-09-09T09:00:28;3.58;;;1.40;;
9801;SDS011;4940;50.900;4.672;2022-09-09T09:03:02;3.67;;;1.40;;
9801;SDS011;4940;50.900;4.672;2022-09-09T09:05:41;7.00;;;1.52;;
9801;SDS011;4940;50.900;4.672;2022-09-09T09:08:15;3.42;;;1.60;;
9801;SDS011;4940;50.900;4.672;2022-09-09T09:10:53;3.55;;;1.38;;
9801;SDS011;4940;50.900;4.672;2022-09-09T09:13:26;4.53;;;1.80;;
9801;SDS011;4940;50.900;4.672;2022-09-09T09:16:00;5.95;;;1.45;;
9801;SDS011;4940;50.900;4.672;2022-09-09T09:18:30;3.67;;;1.88;;
9801;SDS011;4940;50.900;4.672;2022-09-09T09:21:00;4.95;;;1.83;;
9801;SDS011;4940;50.900;4.672;2022-09-09T09:23:37;3.75;;;1.60;;
9801;SDS011;4940;50.900;4.672;2022-09-09T09:26:13;4.70;;;1.50;;
9801;SDS011;4940;50.900;4.672;2022-09-09T09:28:40;2.90;;;1.52;;
9801;SDS011;4940;50.900;4.672;2022-09-09T09:31:09;4.15;;;1.70;;
9801;SDS011;4940;50.900;4.672;2022-09-09T09:33:38;5.35;;;1.58;;
9801;SDS011;4940;50.900;4.672;2022-09-09T09:36:11;4.03;;;1.80;;
9801;SDS011;4940;50.900;4.672;2022-09-09T09:38:50;3.60;;;1.48;;
9801;SDS011;4940;50.900;4.672;2022-09-09T09:41:29;4.22;;;1.45;;
9801;SDS011;4940;50.900;4.672;2022-09-09T09:43:58;6.00;;;1.60;;
9801;SDS011;4940;50.900;4.672;2022-09-09T09:46:27;4.75;;;1.50;;
9801;SDS011;4940;50.900;4.672;2022-09-09T09:48:59;5.60;;;1.75;;
9801;SDS011;4940;50.900;4.672;2022-09-09T09:51:28;3.45;;;1.55;;
9801;SDS011;4940;50.900;4.672;2022-09-09T09:54:08;2.78;;;1.38;;
9801;SDS011;4940;50.900;4.672;2022-09-09T09:56:45;7.10;;;1.95;;
9801;SDS011;4940;50.900;4.672;2022-09-09T09:59:20;3.33;;;1.60;;
9801;SDS011;4940;50.900;4.672;2022-09-09T10:01:48;10.18;;;1.88;;
9801;SDS011;4940;50.900;4.672;2022-09-09T10:04:16;3.15;;;1.58;;
9801;SDS011;4940;50.900;4.672;2022-09-09T10:06:45;4.90;;;1.85;;
9801;SDS011;4940;50.900;4.672;2022-09-09T10:09:23;3.90;;;1.60;;
9801;SDS011;4940;50.900;4.672;2022-09-09T10:11:55;3.30;;;1.60;;
9801;SDS011;4940;50.900;4.672;2022-09-09T10:14:30;3.50;;;1.83;;
9801;SDS011;4940;50.900;4.672;2022-09-09T10:17:07;3.05;;;1.73;;
9801;SDS011;4940;50.900;4.672;2022-09-09T10:19:45;7.28;;;2.05;;
9801;SDS011;4940;50.900;4.672;2022-09-09T10:22:25;4.38;;;1.63;;
9801;SDS011;4940;50.900;4.672;2022-09-09T10:25:02;5.10;;;2.05;;
9801;SDS011;4940;50.900;4.672;2022-09-09T10:28:00;2.95;;;1.70;;
9801;SDS011;4940;50.900;4.672;2022-09-09T10:30:33;5.47;;;2.10;;
9801;SDS011;4940;50.900;4.672;2022-09-09T10:33:09;5.72;;;1.95;;
9801;SDS011;4940;50.900;4.672;2022-09-09T10:35:42;5.00;;;1.67;;
9801;SDS011;4940;50.900;4.672;2022-09-09T10:38:18;4.82;;;1.75;;
9801;SDS011;4940;50.900;4.672;2022-09-09T10:43:52;5.18;;;1.60;;
9801;SDS011;4940;50.900;4.672;2022-09-09T10:46:25;4.43;;;1.52;;
9801;SDS011;4940;50.900;4.672;2022-09-09T10:49:03;4.03;;;1.70;;
9801;SDS011;4940;50.900;4.672;2022-09-09T10:51:44;3.30;;;1.65;;
9801;SDS011;4940;50.900;4.672;2022-09-09T10:54:23;3.92;;;1.85;;
9801;SDS011;4940;50.900;4.672;2022-09-09T10:57:04;4.00;;;1.45;;
9801;SDS011;4940;50.900;4.672;2022-09-09T10:59:40;3.22;;;1.50;;
9801;SDS011;4940;50.900;4.672;2022-09-09T11:02:12;5.15;;;1.60;;
9801;SDS011;4940;50.900;4.672;2022-09-09T11:04:45;6.35;;;2.22;;
9801;SDS011;4940;50.900;4.672;2022-09-09T11:07:18;7.10;;;1.70;;
9801;SDS011;4940;50.900;4.672;2022-09-09T11:09:55;4.90;;;1.73;;
9801;SDS011;4940;50.900;4.672;2022-09-09T11:12:27;7.80;;;1.92;;
9801;SDS011;4940;50.900;4.672;2022-09-09T11:14:59;4.88;;;1.70;;
9801;SDS011;4940;50.900;4.672;2022-09-09T11:17:33;2.65;;;1.58;;
9801;SDS011;4940;50.900;4.672;2022-09-09T11:20:05;6.43;;;2.20;;
9801;SDS011;4940;50.900;4.672;2022-09-09T11:22:38;4.53;;;1.65;;
9801;SDS011;4940;50.900;4.672;2022-09-09T11:25:10;3.35;;;1.58;;
9801;SDS011;4940;50.900;4.672;2022-09-09T11:27:43;6.38;;;1.58;;
9801;SDS011;4940;50.900;4.672;2022-09-09T11:30:33;3.35;;;1.20;;
9801;SDS011;4940;50.900;4.672;2022-09-09T11:33:25;4.20;;;1.42;;
9801;SDS011;4940;50.900;4.672;2022-09-09T11:36:12;3.00;;;1.38;;
9801;SDS011;4940;50.900;4.672;2022-09-09T11:39:22;1.38;;;0.93;;
9801;SDS011;4940;50.900;4.672;2022-09-09T11:42:15;2.55;;;1.30;;
9801;SDS011;4940;50.900;4.672;2022-09-09T11:44:43;2.75;;;1.20;;
9801;SDS011;4940;50.900;4.672;2022-09-09T11:47:17;2.58;;;1.27;;
9801;SDS011;4940;50.900;4.672;2022-09-09T11:49:49;2.08;;;1.20;;
9801;SDS011;4940;50.900;4.672;2022-09-09T11:52:22;3.60;;;1.52;;
9801;SDS011;4940;50.900;4.672;2022-09-09T11:54:54;4.85;;;1.40;;
9801;SDS011;4940;50.900;4.672;2022-09-09T11:57:23;2.92;;;1.23;;
9801;SDS011;4940;50.900;4.672;2022-09-09T11:59:54;4.05;;;1.30;;
9801;SDS011;4940;50.900;4.672;2022-09-09T12:02:24;3.78;;;1.40;;
9801;SDS011;4940;50.900;4.672;2022-09-09T12:04:56;2.35;;;1.33;;
9801;SDS011;4940;50.900;4.672;2022-09-09T12:07:35;4.72;;;1.58;;
9801;SDS011;4940;50.900;4.672;2022-09-09T12:10:17;2.05;;;1.13;;
9801;SDS011;4940;50.900;4.672;2022-09-09T12:12:48;2.50;;;1.02;;
9801;SDS011;4940;50.900;4.672;2022-09-09T12:15:20;3.15;;;1.27;;
9801;SDS011;4940;50.900;4.672;2022-09-09T12:17:51;2.88;;;1.17;;
9801;SDS011;4940;50.900;4.672;2022-09-09T12:20:20;3.17;;;1.27;;
9801;SDS011;4940;50.900;4.672;2022-09-09T12:22:51;4.47;;;1.40;;
9801;SDS011;4940;50.900;4.672;2022-09-09T12:25:28;3.40;;;1.10;;
9801;SDS011;4940;50.900;4.672;2022-09-09T12:28:04;1.95;;;1.27;;
9801;SDS011;4940;50.900;4.672;2022-09-09T12:30:40;4.35;;;1.42;;
9801;SDS011;4940;50.900;4.672;2022-09-09T12:33:16;2.90;;;1.30;;
9801;SDS011;4940;50.900;4.672;2022-09-09T12:35:45;3.42;;;1.55;;
9801;SDS011;4940;50.900;4.672;2022-09-09T12:38:19;3.75;;;1.15;;
9801;SDS011;4940;50.900;4.672;2022-09-09T12:40:54;3.28;;;1.13;;
9801;SDS011;4940;50.900;4.672;2022-09-09T12:43:25;4.97;;;1.63;;
9801;SDS011;4940;50.900;4.672;2022-09-09T12:45:53;4.05;;;1.13;;
9801;SDS011;4940;50.900;4.672;2022-09-09T12:48:27;2.45;;;1.10;;
9801;SDS011;4940;50.900;4.672;2022-09-09T12:50:58;2.75;;;1.23;;
9801;SDS011;4940;50.900;4.672;2022-09-09T12:53:26;2.03;;;1.33;;
9801;SDS011;4940;50.900;4.672;2022-09-09T12:55:57;3.10;;;1.30;;
9801;SDS011;4940;50.900;4.672;2022-09-09T12:58:27;3.80;;;1.27;;
9801;SDS011;4940;50.900;4.672;2022-09-09T13:00:58;4.50;;;1.42;;
9801;SDS011;4940;50.900;4.672;2022-09-09T13:03:28;3.15;;;1.10;;
9801;SDS011;4940;50.900;4.672;2022-09-09T13:05:57;4.00;;;1.27;;
9801;SDS011;4940;50.900;4.672;2022-09-09T13:08:26;1.90;;;1.30;;
9801;SDS011;4940;50.900;4.672;2022-09-09T13:10:53;2.75;;;1.23;;
9801;SDS011;4940;50.900;4.672;2022-09-09T13:13:23;2.72;;;1.40;;
9801;SDS011;4940;50.900;4.672;2022-09-09T13:15:55;1.65;;;1.20;;
9801;SDS011;4940;50.900;4.672;2022-09-09T13:18:24;1.20;;;1.00;;
9801;SDS011;4940;50.900;4.672;2022-09-09T13:20:54;3.00;;;1.30;;
9801;SDS011;4940;50.900;4.672;2022-09-09T13:23:23;1.40;;;0.80;;
9801;SDS011;4940;50.900;4.672;2022-09-09T13:25:55;2.47;;;1.00;;
9801;SDS011;4940;50.900;4.672;2022-09-09T13:28:24;3.35;;;1.08;;
9801;SDS011;4940;50.900;4.672;2022-09-09T13:30:56;6.15;;;0.93;;
9801;SDS011;4940;50.900;4.672;2022-09-09T13:33:29;1.80;;;0.98;;
9801;SDS011;4940;50.900;4.672;2022-09-09T13:36:00;3.53;;;1.05;;
9801;SDS011;4940;50.900;4.672;2022-09-09T13:38:30;3.10;;;1.10;;
9801;SDS011;4940;50.900;4.672;2022-09-09T13:41:00;5.60;;;1.00;;
9801;SDS011;4940;50.900;4.672;2022-09-09T13:43:30;0.90;;;0.70;;
9801;SDS011;4940;50.900;4.672;2022-09-09T13:46:00;1.38;;;0.77;;
9801;SDS011;4940;50.900;4.672;2022-09-09T13:48:28;1.63;;;1.10;;
9801;SDS011;4940;50.900;4.672;2022-09-09T13:50:58;2.40;;;1.10;;
9801;SDS011;4940;50.900;4.672;2022-09-09T13:53:29;4.47;;;1.15;;
9801;SDS011;4940;50.900;4.672;2022-09-09T13:55:57;4.10;;;1.00;;
9801;SDS011;4940;50.900;4.672;2022-09-09T13:58:24;1.30;;;1.00;;
9801;SDS011;4940;50.900;4.672;2022-09-09T14:00:52;2.10;;;0.82;;
9801;SDS011;4940;50.900;4.672;2022-09-09T14:03:19;1.85;;;1.15;;
9801;SDS011;4940;50.900;4.672;2022-09-09T14:05:47;2.10;;;0.90;;
9801;SDS011;4940;50.900;4.672;2022-09-09T14:08:20;3.13;;;1.00;;
9801;SDS011;4940;50.900;4.672;2022-09-09T14:10:51;1.38;;;0.95;;
9801;SDS011;4940;50.900;4.672;2022-09-09T14:13:21;2.35;;;1.10;;
9801;SDS011;4940;50.900;4.672;2022-09-09T14:15:48;1.88;;;0.90;;
9801;SDS011;4940;50.900;4.672;2022-09-09T14:18:16;3.90;;;0.90;;
9801;SDS011;4940;50.900;4.672;2022-09-09T14:20:44;1.98;;;1.08;;
9801;SDS011;4940;50.900;4.672;2022-09-09T14:23:11;1.52;;;0.90;;
9801;SDS011;4940;50.900;4.672;2022-09-09T14:25:43;1.42;;;1.00;;
9801;SDS011;4940;50.900;4.672;2022-09-09T14:28:10;0.98;;;0.85;;
9801;SDS011;4940;50.900;4.672;2022-09-09T14:30:39;3.15;;;1.25;;
9801;SDS011;4940;50.900;4.672;2022-09-09T14:33:08;2.05;;;1.00;;
9801;SDS011;4940;50.900;4.672;2022-09-09T14:35:43;2.47;;;1.05;;
9801;SDS011;4940;50.900;4.672;2022-09-09T14:38:14;1.52;;;0.95;;
9801;SDS011;4940;50.900;4.672;2022-09-09T14:40:44;1.77;;;0.90;;
9801;SDS011;4940;50.900;4.672;2022-09-09T14:43:12;1.67;;;1.00;;
9801;SDS011;4940;50.900;4.672;2022-09-09T14:45:40;6.32;;;1.52;;
9801;SDS011;4940;50.900;4.672;2022-09-09T14:48:08;1.17;;;1.00;;
9801;SDS011;4940;50.900;4.672;2022-09-09T14:50:36;1.60;;;1.10;;
9801;SDS011;4940;50.900;4.672;2022-09-09T14:53:05;1.60;;;1.10;;
9801;SDS011;4940;50.900;4.672;2022-09-09T14:55:32;1.67;;;1.17;;
9801;SDS011;4940;50.900;4.672;2022-09-09T14:58:01;2.08;;;1.10;;
9801;SDS011;4940;50.900;4.672;2022-09-09T15:00:28;2.67;;;1.25;;
9801;SDS011;4940;50.900;4.672;2022-09-09T15:02:55;1.45;;;1.27;;
9801;SDS011;4940;50.900;4.672;2022-09-09T15:05:23;3.55;;;1.10;;
9801;SDS011;4940;50.900;4.672;2022-09-09T15:07:50;2.45;;;1.20;;
9801;SDS011;4940;50.900;4.672;2022-09-09T15:10:18;1.48;;;0.90;;
9801;SDS011;4940;50.900;4.672;2022-09-09T15:12:46;5.82;;;1.20;;
9801;SDS011;4940;50.900;4.672;2022-09-09T15:15:14;2.25;;;1.30;;
9801;SDS011;4940;50.900;4.672;2022-09-09T15:17:42;3.17;;;1.15;;
9801;SDS011;4940;50.900;4.672;2022-09-09T15:20:09;1.98;;;1.10;;
9801;SDS011;4940;50.900;4.672;2022-09-09T15:22:37;2.30;;;1.15;;
9801;SDS011;4940;50.900;4.672;2022-09-09T15:25:05;1.42;;;1.10;;
9801;SDS011;4940;50.900;4.672;2022-09-09T15:27:33;1.58;;;1.38;;
9801;SDS011;4940;50.900;4.672;2022-09-09T15:30:00;1.10;;;0.80;;
9801;SDS011;4940;50.900;4.672;2022-09-09T15:32:29;2.88;;;1.15;;
9801;SDS011;4940;50.900;4.672;2022-09-09T15:34:59;1.50;;;0.98;;
9801;SDS011;4940;50.900;4.672;2022-09-09T15:37:26;1.30;;;1.00;;
9801;SDS011;4940;50.900;4.672;2022-09-09T15:39:54;1.38;;;1.00;;
9801;SDS011;4940;50.900;4.672;2022-09-09T15:42:24;1.88;;;1.00;;
9801;SDS011;4940;50.900;4.672;2022-09-09T15:44:51;1.77;;;0.98;;